createdAt,value
2023-04-15T00:01:43.295Z,11.64
2023-04-15T00:06:53.058Z,11.47
2023-04-15T00:11:54.862Z,11.30
2023-04-15T00:16:57.403Z,11.21
2023-04-15T00:22:00.757Z,11.11
2023-04-15T00:27:02.459Z,11.00
2023-04-15T00:32:04.452Z,10.90
2023-04-15T00:37:06.170Z,10.78
2023-04-15T00:42:07.850Z,10.73
2023-04-15T00:47:11.298Z,10.69
2023-04-15T00:52:13.257Z,10.57
2023-04-15T00:57:14.874Z,10.44
2023-04-15T01:02:16.903Z,10.39
2023-04-15T01:07:19.044Z,10.40
2023-04-15T01:12:21.142Z,10.45
2023-04-15T01:17:24.825Z,10.52
2023-04-15T01:22:27.800Z,10.59
2023-04-15T01:27:30.251Z,10.66
2023-04-15T01:32:32.127Z,10.69
2023-04-15T01:37:34.197Z,10.70
2023-04-15T01:42:38.918Z,10.69
2023-04-15T01:47:40.610Z,10.67
2023-04-15T01:52:44.972Z,10.66
2023-04-15T01:57:47.395Z,10.62
2023-04-15T02:02:49.538Z,10.57
2023-04-15T02:07:52.206Z,10.51
2023-04-15T02:12:54.269Z,10.42
2023-04-15T02:17:57.014Z,10.34
2023-04-15T02:22:58.878Z,10.24
2023-04-15T02:28:00.792Z,10.15
2023-04-15T02:33:03.262Z,10.05
2023-04-15T02:38:05.094Z,9.97
2023-04-15T02:43:07.430Z,9.87
2023-04-15T02:48:09.857Z,9.71
2023-04-15T02:53:11.746Z,9.60
2023-04-15T02:58:13.649Z,9.42
2023-04-15T03:03:15.707Z,9.23
2023-04-15T03:08:17.561Z,9.05
2023-04-15T03:13:20.461Z,8.83
2023-04-15T03:18:23.598Z,8.65
2023-04-15T03:23:25.951Z,8.50
2023-04-15T03:28:29.634Z,8.36
2023-04-15T03:33:32.549Z,8.24
2023-04-15T03:38:34.374Z,8.16
2023-04-15T03:43:36.034Z,8.12
2023-04-15T03:48:37.674Z,8.08
2023-04-15T03:53:39.380Z,8.01
2023-04-15T03:58:41.062Z,7.83
2023-04-15T04:07:18.211Z,7.40
2023-04-15T04:12:20.045Z,7.28
2023-04-15T04:17:21.868Z,7.21
2023-04-15T04:22:24.640Z,7.13
2023-04-15T04:27:26.648Z,7.09
2023-04-15T04:32:28.319Z,7.10
2023-04-15T04:37:30.024Z,7.09
2023-04-15T04:42:31.774Z,7.18
2023-04-15T04:47:33.402Z,7.31
2023-04-15T04:52:35.242Z,7.40
2023-04-15T04:57:37.830Z,7.42
2023-04-15T05:02:39.918Z,7.56
2023-04-15T05:07:42.158Z,7.78
2023-04-15T05:12:44.403Z,8.17
2023-04-15T05:17:46.133Z,8.51
2023-04-15T05:22:47.966Z,8.73
2023-04-15T05:27:49.746Z,9.21
2023-04-15T05:32:51.913Z,9.42
2023-04-15T05:37:53.692Z,9.60
2023-04-15T05:42:55.522Z,9.98
2023-04-15T05:47:57.228Z,10.10
2023-04-15T05:52:59.130Z,10.27
2023-04-15T05:58:00.781Z,10.73
2023-04-15T06:03:02.582Z,11.17
2023-04-15T06:08:04.690Z,11.35
2023-04-15T06:13:06.984Z,11.56
2023-04-15T06:18:08.701Z,11.66
2023-04-15T06:23:10.434Z,11.64
2023-04-15T06:28:12.144Z,11.81
2023-04-15T06:33:14.052Z,12.14
2023-04-15T06:38:15.866Z,12.90
2023-04-15T06:43:17.476Z,13.94
2023-04-15T06:48:19.221Z,14.23
2023-04-15T06:53:21.532Z,14.11
2023-04-15T06:58:23.210Z,14.03
2023-04-15T07:03:24.953Z,13.91
2023-04-15T07:08:26.605Z,14.41
2023-04-15T07:13:30.986Z,14.87
2023-04-15T07:18:32.643Z,15.20
2023-04-15T07:23:34.545Z,15.19
2023-04-15T07:28:36.224Z,14.91
2023-04-15T07:33:37.899Z,15.13
2023-04-15T07:38:39.852Z,15.41
2023-04-15T07:43:41.552Z,15.28
2023-04-15T07:48:43.403Z,15.97
2023-04-15T07:53:45.345Z,16.30
2023-04-15T07:58:47.017Z,16.33
2023-04-15T08:03:52.969Z,16.24
2023-04-15T08:08:55.725Z,15.94
2023-04-15T08:13:57.673Z,16.17
2023-04-15T08:18:59.813Z,16.19
2023-04-15T08:24:01.918Z,16.17
2023-04-15T08:29:03.744Z,16.37
2023-04-15T08:34:05.771Z,16.80
2023-04-15T08:39:07.869Z,16.86
2023-04-15T08:44:10.297Z,17.03
2023-04-15T08:49:13.313Z,16.95
2023-04-15T08:54:15.052Z,17.19
2023-04-15T08:59:17.083Z,17.09
2023-04-15T09:04:19.082Z,17.34
2023-04-15T09:09:20.874Z,18.02
2023-04-15T09:14:23.257Z,18.54
2023-04-15T09:19:25.396Z,19.04
2023-04-15T09:24:37.405Z,19.95
2023-04-15T09:29:41.699Z,20.63
2023-04-15T09:34:43.548Z,20.69
2023-04-15T09:39:52.967Z,20.36
2023-04-15T09:44:55.098Z,19.96
2023-04-15T09:50:01.104Z,19.34
2023-04-15T09:55:02.965Z,19.50
2023-04-15T10:00:11.035Z,19.98
2023-04-15T10:05:15.832Z,20.40
2023-04-15T10:10:18.293Z,20.17
2023-04-15T10:15:21.599Z,19.58
2023-04-15T10:20:24.447Z,19.28
2023-04-15T10:25:26.952Z,19.05
2023-04-15T10:30:29.085Z,18.58
2023-04-15T10:35:32.909Z,18.88
2023-04-15T10:40:35.410Z,19.65
2023-04-15T10:45:37.851Z,19.94
2023-04-15T10:50:39.876Z,19.76
2023-04-15T10:55:41.597Z,19.65
2023-04-15T11:00:52.228Z,19.43
2023-04-15T11:05:54.349Z,19.02
2023-04-15T11:10:56.321Z,18.95
2023-04-15T11:15:59.192Z,18.47
2023-04-15T11:21:03.694Z,18.21
2023-04-15T11:26:11.650Z,18.15
2023-04-15T11:31:16.424Z,18.00
2023-04-15T11:36:18.400Z,17.57
2023-04-15T11:41:22.320Z,17.36
2023-04-15T11:46:30.971Z,17.04
2023-04-15T11:51:34.545Z,16.86
2023-04-15T11:56:36.458Z,16.70
2023-04-15T12:01:47.211Z,16.60
2023-04-15T12:06:48.935Z,16.69
2023-04-15T12:11:53.735Z,16.89
2023-04-15T12:16:59.908Z,17.33
2023-04-15T12:22:22.208Z,17.88
2023-04-15T12:27:29.265Z,18.37
2023-04-15T12:32:35.948Z,18.90
2023-04-15T12:37:37.709Z,19.24
2023-04-15T12:42:40.079Z,19.78
2023-04-15T12:47:41.852Z,20.42
2023-04-15T12:52:43.594Z,21.20
2023-04-15T12:57:46.993Z,21.72
2023-04-15T13:02:49.286Z,21.28
2023-04-15T13:07:51.241Z,21.09
2023-04-15T13:12:53.782Z,21.26
2023-04-15T13:17:55.955Z,21.15
2023-04-15T13:23:01.011Z,21.32
2023-04-15T13:28:03.162Z,21.63
2023-04-15T13:33:05.664Z,21.46
2023-04-15T13:38:07.395Z,20.68
2023-04-15T13:43:18.864Z,19.65
2023-04-15T13:48:20.761Z,18.93
2023-04-15T13:53:33.870Z,18.41
2023-04-15T13:58:41.382Z,17.85
2023-04-15T14:03:43.224Z,17.50
2023-04-15T14:08:45.460Z,17.19
2023-04-15T14:13:47.487Z,16.65
2023-04-15T14:18:49.209Z,16.04
2023-04-15T14:23:51.083Z,15.62
2023-04-15T14:28:52.758Z,15.30
2023-04-15T14:33:54.477Z,15.04
2023-04-15T14:38:56.213Z,14.76
2023-04-15T14:43:58.150Z,14.57
2023-04-15T14:48:59.821Z,14.54
2023-04-15T14:54:01.961Z,14.62
2023-04-15T14:59:03.797Z,14.68
2023-04-15T15:04:06.491Z,14.74
2023-04-15T15:09:08.582Z,14.79
2023-04-15T15:14:10.384Z,14.79
2023-04-15T15:19:12.140Z,14.72
2023-04-15T15:24:13.862Z,14.49
2023-04-15T15:29:15.657Z,14.32
2023-04-15T15:34:17.603Z,14.12
2023-04-15T15:39:19.299Z,14.01
2023-04-15T15:44:21.045Z,14.25
2023-04-15T15:49:22.836Z,14.56
2023-04-15T15:54:25.375Z,14.65
2023-04-15T15:59:27.136Z,14.70
2023-04-15T16:04:29.078Z,14.45
2023-04-15T16:09:31.767Z,14.08
2023-04-15T16:14:33.430Z,13.75
2023-04-15T16:19:35.165Z,13.47
2023-04-15T16:24:36.889Z,13.09
2023-04-15T16:29:38.611Z,12.66
2023-04-15T16:34:41.556Z,12.38
2023-04-15T16:39:43.330Z,12.16
2023-04-15T16:44:44.956Z,11.91
2023-04-15T16:49:47.665Z,11.58
2023-04-15T16:54:49.323Z,11.32
2023-04-15T16:59:51.780Z,11.23
2023-04-15T17:04:53.515Z,11.17
2023-04-15T17:09:55.331Z,10.95
2023-04-15T17:14:57.153Z,10.60
2023-04-15T17:19:58.963Z,10.50
2023-04-15T17:25:00.755Z,10.60
2023-04-15T17:30:02.624Z,10.59
2023-04-15T17:35:06.502Z,10.64
2023-04-15T17:40:09.087Z,10.55
2023-04-15T17:45:11.475Z,10.23
2023-04-15T17:50:13.194Z,10.20
2023-04-15T17:55:15.220Z,10.31
2023-04-15T18:00:17.237Z,10.47
2023-04-15T18:05:19.935Z,10.53
2023-04-15T18:10:21.964Z,10.65
2023-04-15T18:15:23.661Z,10.77
2023-04-15T18:20:25.699Z,10.87
2023-04-15T18:25:27.570Z,10.89
2023-04-15T18:30:29.362Z,10.91
2023-04-15T18:35:31.349Z,10.94
2023-04-15T18:40:33.001Z,10.69
2023-04-15T18:45:34.977Z,10.45
2023-04-15T18:50:37.160Z,10.39
2023-04-15T18:55:39.991Z,10.26
2023-04-15T19:00:43.813Z,10.16
2023-04-15T19:05:45.765Z,10.05
2023-04-15T19:10:47.699Z,10.10
2023-04-15T19:15:49.384Z,10.22
2023-04-15T19:20:52.968Z,10.31
2023-04-15T19:25:54.689Z,10.34
2023-04-15T19:30:58.018Z,10.36
2023-04-15T19:36:05.564Z,10.48
2023-04-15T19:41:09.144Z,10.60
2023-04-15T19:46:13.343Z,10.45
2023-04-15T19:51:17.897Z,10.30
2023-04-15T19:56:20.701Z,10.34
2023-04-15T20:01:23.163Z,10.28
2023-04-15T20:06:25.086Z,10.24
2023-04-15T20:12:06.100Z,10.16
2023-04-15T20:16:51.119Z,10.01
2023-04-15T20:21:54.083Z,9.89
2023-04-15T20:26:57.543Z,9.73
2023-04-15T20:31:59.266Z,9.68
2023-04-15T20:37:01.534Z,9.65
2023-04-15T20:42:03.469Z,9.59
2023-04-15T20:47:06.371Z,9.53
2023-04-15T20:52:08.979Z,9.45
2023-04-15T20:57:10.652Z,9.37
2023-04-15T21:02:12.493Z,9.33
2023-04-15T21:07:14.836Z,9.35
2023-04-15T21:12:16.730Z,9.43
2023-04-15T21:17:19.615Z,9.51
2023-04-15T21:22:21.517Z,9.59
2023-04-15T21:27:23.233Z,9.69
2023-04-15T21:32:26.303Z,9.80
2023-04-15T21:37:27.922Z,9.92
2023-04-15T21:42:30.217Z,9.99
2023-04-15T21:48:00.892Z,10.07
2023-04-15T21:53:08.130Z,10.09
2023-04-15T21:58:09.870Z,10.03
2023-04-15T22:03:12.127Z,9.90
2023-04-15T22:08:14.163Z,9.70
2023-04-15T22:13:16.858Z,9.51
2023-04-15T22:18:18.525Z,9.36
2023-04-15T22:23:20.841Z,9.20
2023-04-15T22:28:22.536Z,9.05
2023-04-15T22:33:24.333Z,8.93
2023-04-15T22:38:26.043Z,8.82
2023-04-15T22:43:27.917Z,8.66
2023-04-15T22:48:29.651Z,8.50
2023-04-15T22:53:31.489Z,8.41
2023-04-15T22:58:33.219Z,8.33
2023-04-15T23:03:35.072Z,8.25
2023-04-15T23:08:59.188Z,8.16
2023-04-15T23:14:29.103Z,7.84
2023-04-15T23:19:30.837Z,7.57
2023-04-15T23:24:32.686Z,7.45
2023-04-15T23:29:34.400Z,7.37
2023-04-15T23:34:37.617Z,7.25
2023-04-15T23:39:42.189Z,7.17
2023-04-15T23:44:44.945Z,7.09
2023-04-15T23:49:52.772Z,7.09
2023-04-15T23:54:54.526Z,7.01
2023-04-15T23:59:56.572Z,6.93
